Main page
Satellite images 10-day forecastsClimateMarine weather Cyclones Lightning AirportsFAQ Newsletter About
Weather : Europe Africa North America South America Asia Australia-Oceania Others
Languages Contact

Baia Mare, Romania

Baia Mare Airport

latitude: 47-40N, longitude: 023-35E, elevation: 218 m


METAR: LRBM 041530Z 19003KT 150V210 9999 FEW042CB 30/16 Q1015
TAF: LRBM 041400Z 0415/0424 VRB04KT CAVOK TEMPO 0415/0418 SCT040CB

Time: 18:49 (15:49 UTC)

Current weather observation

The report was made 19 minutes ago, at 15:30 UTC
Wind 3 kt from the South, varying between South/Southeast and South/Southwest
Temperature 30°C
Humidity 43%
Pressure 1015 hPa
Visibility 10 km or more
Few clouds at a height of 4200 ft, Cumulonimbus.

Change units

Forecast

The report was made 1 hour and 49 minutes ago, at 14:00 UTC
Forecast valid from 04 at 15 UTC to 04 at 24 UTC
Wind 4 kt from variable directions
Visibility 10 km or more
no clouds below 1500 m and no cumulonimbus
Temporary
from 04 at 15 UTC to 04 at 18 UTC
Scattered clouds at a height of 4000 ft, Cumulonimbus.
The information on this site is subject to a disclaimer
Weather : Europe Africa North America South America Asia Australia-Oceania Others
Satellite images 10-day forecastsClimateMarine weather Cyclones Lightning AirportsFAQ Languages Contact Newsletter About